createdAt,value
2024-01-15T00:00:41.771Z,55.39
2024-01-15T00:03:09.302Z,54.94
2024-01-15T00:05:36.955Z,54.71
2024-01-15T00:08:04.262Z,54.99
2024-01-15T00:10:31.386Z,55.04
2024-01-15T00:12:58.566Z,54.80
2024-01-15T00:15:26.412Z,54.99
2024-01-15T00:17:53.669Z,54.08
2024-01-15T00:20:20.831Z,53.93
2024-01-15T00:22:47.968Z,54.36
2024-01-15T00:25:15.317Z,53.91
2024-01-15T00:27:42.503Z,55.21
2024-01-15T00:30:10.887Z,53.99
2024-01-15T00:32:38.248Z,53.23
2024-01-15T00:35:06.209Z,52.88
2024-01-15T00:37:33.434Z,52.55
2024-01-15T00:40:00.771Z,52.32
2024-01-15T00:42:28.107Z,52.55
2024-01-15T00:44:55.662Z,52.78
2024-01-15T00:47:22.977Z,53.19
2024-01-15T00:49:50.291Z,52.51
2024-01-15T00:52:17.485Z,53.15
2024-01-15T00:54:44.580Z,52.56
2024-01-15T00:57:11.744Z,52.49
2024-01-15T00:59:39.151Z,53.44
2024-01-15T01:02:06.362Z,52.75
2024-01-15T01:04:33.513Z,52.57
2024-01-15T01:07:00.828Z,52.81
2024-01-15T01:09:30.504Z,53.42
2024-01-15T01:11:58.021Z,54.13
2024-01-15T01:14:25.160Z,53.80
2024-01-15T01:16:52.374Z,53.88
2024-01-15T01:19:19.812Z,53.72
2024-01-15T01:21:47.233Z,54.08
2024-01-15T01:24:14.419Z,54.41
2024-01-15T01:26:41.651Z,53.90
2024-01-15T01:29:08.847Z,54.12
2024-01-15T01:31:36.413Z,54.26
2024-01-15T01:34:03.761Z,54.38
2024-01-15T01:36:33.084Z,54.97
2024-01-15T01:39:00.390Z,55.66
2024-01-15T01:41:27.572Z,54.85
2024-01-15T01:43:54.823Z,55.13
2024-01-15T01:46:22.145Z,53.71
2024-01-15T01:48:49.850Z,52.63
2024-01-15T01:51:17.301Z,51.15
2024-01-15T01:53:46.719Z,51.89
2024-01-15T01:56:14.843Z,51.44
2024-01-15T01:58:42.228Z,51.44
2024-01-15T02:01:09.983Z,52.97
2024-01-15T02:03:37.592Z,54.91
2024-01-15T02:06:05.399Z,55.94
2024-01-15T02:08:33.020Z,56.47
2024-01-15T02:11:00.171Z,57.10
2024-01-15T02:13:27.447Z,56.25
2024-01-15T02:15:54.674Z,55.08
2024-01-15T02:18:22.270Z,54.87
2024-01-15T02:20:49.606Z,54.60
2024-01-15T02:23:17.517Z,55.03
2024-01-15T02:25:46.868Z,55.87
2024-01-15T02:28:19.106Z,57.95
2024-01-15T02:30:47.091Z,56.56
2024-01-15T02:33:14.868Z,59.86
2024-01-15T02:35:42.379Z,58.80
2024-01-15T02:38:09.681Z,58.00
2024-01-15T02:40:37.959Z,57.97
2024-01-15T02:43:05.598Z,58.05
2024-01-15T02:45:33.016Z,57.15
2024-01-15T02:48:00.250Z,56.59
2024-01-15T02:50:27.584Z,58.48
2024-01-15T02:52:54.892Z,59.82
2024-01-15T02:55:22.242Z,59.28
2024-01-15T02:57:49.458Z,58.38
2024-01-15T03:00:16.938Z,58.03
2024-01-15T03:02:48.520Z,59.10
2024-01-15T03:05:16.538Z,60.95
2024-01-15T03:07:44.824Z,61.09
2024-01-15T03:10:12.066Z,61.74
2024-01-15T03:12:39.253Z,60.99
2024-01-15T03:15:06.827Z,60.38
2024-01-15T03:17:34.293Z,59.48
2024-01-15T03:20:03.959Z,59.44
2024-01-15T03:22:31.244Z,60.71
2024-01-15T03:24:58.381Z,61.09
2024-01-15T03:27:25.571Z,60.71
2024-01-15T03:29:52.934Z,59.49
2024-01-15T03:32:20.918Z,59.58
2024-01-15T03:34:49.038Z,59.55
2024-01-15T03:37:16.439Z,61.03
2024-01-15T03:39:43.653Z,60.92
2024-01-15T03:42:10.962Z,61.55
2024-01-15T03:44:38.055Z,61.00
2024-01-15T03:47:05.660Z,61.72
2024-01-15T03:49:32.943Z,62.01
2024-01-15T03:52:00.082Z,61.03
2024-01-15T03:54:28.274Z,61.21
2024-01-15T03:56:55.456Z,61.08
2024-01-15T03:59:22.761Z,61.54
2024-01-15T04:01:53.043Z,61.79
2024-01-15T04:04:20.543Z,60.15
2024-01-15T04:06:47.935Z,61.72
2024-01-15T04:09:15.507Z,61.82
2024-01-15T04:11:42.825Z,61.80
2024-01-15T04:14:09.911Z,61.91
2024-01-15T04:16:38.874Z,61.89
2024-01-15T04:19:06.192Z,61.49
2024-01-15T04:21:33.680Z,61.90
2024-01-15T04:24:01.052Z,61.78
2024-01-15T04:26:28.191Z,61.12
2024-01-15T04:28:55.351Z,59.81
2024-01-15T04:31:28.490Z,59.95
2024-01-15T04:33:56.113Z,59.76
2024-01-15T04:36:23.633Z,60.00
2024-01-15T04:38:50.840Z,59.78
2024-01-15T04:41:18.381Z,60.17
2024-01-15T04:43:45.818Z,59.64
2024-01-15T04:46:13.067Z,59.91
2024-01-15T04:48:40.325Z,59.65
2024-01-15T04:51:10.236Z,59.49
2024-01-15T04:53:37.587Z,59.06
2024-01-15T04:56:05.009Z,59.19
2024-01-15T04:58:32.151Z,59.12
2024-01-15T05:00:59.355Z,59.39
2024-01-15T05:03:26.645Z,58.60
2024-01-15T05:05:54.007Z,58.45
2024-01-15T05:08:21.227Z,58.11
2024-01-15T05:10:49.168Z,58.82
2024-01-15T05:13:16.497Z,59.30
2024-01-15T05:15:44.230Z,59.20
2024-01-15T05:18:11.780Z,59.33
2024-01-15T05:20:39.046Z,58.76
2024-01-15T05:23:06.201Z,58.50
2024-01-15T05:25:33.468Z,58.48
2024-01-15T05:28:01.144Z,58.30
2024-01-15T05:30:28.437Z,57.18
2024-01-15T05:32:55.784Z,57.68
2024-01-15T05:35:23.048Z,58.37
2024-01-15T05:37:50.305Z,58.14
2024-01-15T05:40:17.454Z,56.46
2024-01-15T05:42:44.609Z,56.33
2024-01-15T05:45:11.812Z,53.63
2024-01-15T05:47:39.145Z,52.73
2024-01-15T05:50:08.035Z,50.64
2024-01-15T05:52:35.461Z,48.99
2024-01-15T05:55:02.828Z,47.48
2024-01-15T05:57:30.059Z,45.78
2024-01-15T05:59:57.320Z,44.95
2024-01-15T06:02:24.500Z,45.40
2024-01-15T06:04:51.668Z,46.18
2024-01-15T06:07:18.909Z,47.07
2024-01-15T06:09:46.336Z,47.42
2024-01-15T06:12:13.772Z,44.90
2024-01-15T06:14:42.528Z,44.69
2024-01-15T06:17:09.842Z,41.99
2024-01-15T06:19:37.057Z,39.70
2024-01-15T06:22:04.495Z,40.65
2024-01-15T06:24:31.714Z,38.43
2024-01-15T06:26:58.849Z,36.83
2024-01-15T06:29:27.685Z,34.86
2024-01-15T06:31:55.406Z,33.52
2024-01-15T06:34:22.900Z,31.93
2024-01-15T06:36:50.244Z,31.69
2024-01-15T06:39:17.437Z,32.80
2024-01-15T06:41:45.010Z,32.74
2024-01-15T06:44:12.935Z,32.88
2024-01-15T06:46:46.493Z,31.59
2024-01-15T06:49:14.076Z,31.59
2024-01-15T06:51:41.891Z,31.48
2024-01-15T06:54:09.900Z,31.38
2024-01-15T06:56:37.067Z,31.84
2024-01-15T06:59:04.172Z,30.63
2024-01-15T07:01:31.521Z,29.34
2024-01-15T07:03:58.897Z,29.47
2024-01-15T07:06:26.259Z,30.61
2024-01-15T07:08:53.659Z,32.15
2024-01-15T07:11:21.013Z,30.89
2024-01-15T07:13:48.236Z,33.49
2024-01-15T07:16:29.671Z,34.71
2024-01-15T07:19:02.542Z,37.03
2024-01-15T07:21:29.785Z,35.39
2024-01-15T07:23:56.969Z,37.59
2024-01-15T07:26:24.174Z,38.46
2024-01-15T07:28:51.403Z,39.90
2024-01-15T07:31:19.147Z,35.68
2024-01-15T07:33:47.710Z,33.70
2024-01-15T07:36:15.074Z,33.12
2024-01-15T07:38:42.205Z,33.67
2024-01-15T07:41:09.446Z,36.55
2024-01-15T07:43:36.623Z,35.30
2024-01-15T07:46:04.094Z,33.89
2024-01-15T07:48:31.703Z,33.41
2024-01-15T07:50:58.909Z,33.84
2024-01-15T07:53:26.111Z,33.33
2024-01-15T07:55:53.338Z,33.46
2024-01-15T07:58:20.461Z,35.09
2024-01-15T08:00:47.757Z,35.81
2024-01-15T08:03:16.671Z,35.06
2024-01-15T08:05:44.031Z,35.24
2024-01-15T08:08:11.207Z,33.40
2024-01-15T08:10:38.407Z,33.97
2024-01-15T08:13:05.502Z,36.12
2024-01-15T08:15:32.784Z,35.69
2024-01-15T08:18:00.722Z,36.39
2024-01-15T08:20:28.155Z,34.30
2024-01-15T08:22:55.357Z,32.72
2024-01-15T08:25:22.531Z,33.09
2024-01-15T08:27:50.113Z,34.23
2024-01-15T08:30:17.667Z,31.58
2024-01-15T08:32:44.950Z,30.02
2024-01-15T08:35:12.862Z,30.30
2024-01-15T08:37:40.481Z,31.65
2024-01-15T08:40:08.334Z,31.03
2024-01-15T08:42:35.627Z,28.40
2024-01-15T08:45:03.034Z,26.71
2024-01-15T08:47:30.288Z,26.47
2024-01-15T08:49:57.520Z,24.72
2024-01-15T08:52:24.697Z,25.68
2024-01-15T08:54:52.240Z,24.93
2024-01-15T08:57:19.530Z,25.42
2024-01-15T08:59:46.626Z,26.73
2024-01-15T09:02:14.000Z,25.81
2024-01-15T09:04:42.335Z,25.62
2024-01-15T09:07:09.769Z,25.34
2024-01-15T09:09:37.896Z,26.54
2024-01-15T09:12:05.400Z,28.09
2024-01-15T09:14:36.786Z,26.68
2024-01-15T09:17:06.589Z,25.36
2024-01-15T09:19:34.146Z,24.27
2024-01-15T09:22:01.505Z,22.26
2024-01-15T09:24:29.604Z,22.37
2024-01-15T09:26:58.362Z,22.64
2024-01-15T09:29:25.668Z,22.82
2024-01-15T09:31:53.618Z,21.93
2024-01-15T09:34:21.267Z,21.17
2024-01-15T09:36:50.300Z,21.56
2024-01-15T09:39:17.925Z,22.07
2024-01-15T09:41:45.339Z,20.94
2024-01-15T09:44:13.549Z,20.54
2024-01-15T09:46:41.358Z,20.31
2024-01-15T09:49:08.726Z,18.76
2024-01-15T09:51:37.802Z,19.13
2024-01-15T09:54:05.415Z,18.83
2024-01-15T09:56:32.910Z,19.67
2024-01-15T09:59:01.242Z,19.52
2024-01-15T10:01:29.656Z,19.38
2024-01-15T10:03:57.104Z,19.19
2024-01-15T10:06:24.760Z,20.15
2024-01-15T10:08:52.862Z,19.51
2024-01-15T10:11:21.051Z,19.26
2024-01-15T10:13:53.724Z,18.60
2024-01-15T10:16:26.480Z,19.00
2024-01-15T10:18:54.850Z,18.30
2024-01-15T10:21:23.198Z,19.52
2024-01-15T10:23:51.693Z,18.63
2024-01-15T10:26:19.922Z,19.77
2024-01-15T10:28:54.224Z,20.41
2024-01-15T10:31:26.192Z,22.18
2024-01-15T10:33:55.522Z,23.22
2024-01-15T10:36:24.324Z,24.00
2024-01-15T10:38:51.789Z,25.42
2024-01-15T10:41:18.921Z,28.48
2024-01-15T10:43:46.337Z,27.90
2024-01-15T10:46:13.980Z,28.32
2024-01-15T10:48:41.322Z,28.63
2024-01-15T10:51:12.131Z,30.18
2024-01-15T10:53:43.241Z,30.42
2024-01-15T10:56:11.516Z,30.15
2024-01-15T10:58:40.888Z,28.51
2024-01-15T11:01:08.494Z,28.68
2024-01-15T11:03:35.953Z,27.52
2024-01-15T11:06:04.792Z,27.48
2024-01-15T11:08:32.827Z,27.34
2024-01-15T11:11:00.121Z,28.60
2024-01-15T11:13:33.184Z,29.15
2024-01-15T11:16:05.747Z,30.17
2024-01-15T11:18:41.525Z,32.56
2024-01-15T11:21:17.759Z,32.54
2024-01-15T11:23:54.021Z,33.00
2024-01-15T11:26:35.342Z,32.33
2024-01-15T11:29:04.898Z,32.19
2024-01-15T11:31:52.281Z,31.63
2024-01-15T11:34:20.426Z,32.93
2024-01-15T11:36:47.637Z,34.40
2024-01-15T11:39:33.747Z,33.84
2024-01-15T11:42:05.223Z,35.38
2024-01-15T11:44:32.648Z,36.24
2024-01-15T11:47:05.174Z,35.84
2024-01-15T11:49:50.726Z,36.50
2024-01-15T11:52:24.932Z,35.39
2024-01-15T11:55:17.903Z,35.17
2024-01-15T11:57:51.175Z,35.39
2024-01-15T12:00:19.315Z,36.06
2024-01-15T12:02:47.957Z,37.83
2024-01-15T12:05:17.928Z,37.56
2024-01-15T12:07:47.145Z,38.51
2024-01-15T12:10:18.545Z,38.75
2024-01-15T12:13:02.216Z,38.13
2024-01-15T12:15:31.187Z,38.45
2024-01-15T12:18:00.193Z,38.72
2024-01-15T12:20:36.983Z,40.33
2024-01-15T12:23:08.965Z,40.91
2024-01-15T12:25:37.094Z,40.29
2024-01-15T12:28:04.699Z,40.89
2024-01-15T12:30:35.730Z,41.40
2024-01-15T12:33:07.912Z,41.47
2024-01-15T12:35:35.862Z,41.19
2024-01-15T12:38:06.556Z,40.23
2024-01-15T12:40:36.930Z,40.27
2024-01-15T12:43:07.070Z,41.12
2024-01-15T12:45:34.477Z,41.04
2024-01-15T12:48:02.238Z,40.72
2024-01-15T12:50:29.460Z,42.73
2024-01-15T12:52:56.823Z,43.71
2024-01-15T12:55:23.987Z,43.97
2024-01-15T12:57:54.036Z,43.93
2024-01-15T13:00:22.004Z,43.88
2024-01-15T13:02:51.084Z,43.21
2024-01-15T13:05:19.306Z,43.84
2024-01-15T13:07:46.709Z,43.56
2024-01-15T13:10:14.085Z,45.14
2024-01-15T13:12:42.762Z,43.14
2024-01-15T13:15:14.913Z,41.80
2024-01-15T13:17:44.493Z,39.44
2024-01-15T13:20:14.053Z,38.08
2024-01-15T13:22:45.443Z,38.09
2024-01-15T13:25:13.144Z,37.69
2024-01-15T13:27:41.544Z,38.80
2024-01-15T13:30:10.077Z,39.25
2024-01-15T13:32:37.577Z,39.08
2024-01-15T13:35:08.232Z,41.13
2024-01-15T13:37:35.952Z,40.21
2024-01-15T13:40:04.934Z,39.68
2024-01-15T13:42:32.288Z,36.88
2024-01-15T13:44:59.707Z,33.84
2024-01-15T13:47:26.895Z,32.77
2024-01-15T13:49:54.111Z,31.99
2024-01-15T13:52:21.253Z,31.78
2024-01-15T13:54:50.570Z,31.78
2024-01-15T13:57:20.887Z,31.00
2024-01-15T13:59:48.927Z,31.33
2024-01-15T14:02:19.750Z,31.59
2024-01-15T14:04:50.163Z,31.60
2024-01-15T14:07:18.040Z,30.43
2024-01-15T14:09:45.413Z,31.23
2024-01-15T14:12:13.426Z,30.50
2024-01-15T14:14:41.607Z,29.98
2024-01-15T14:17:08.967Z,30.27
2024-01-15T14:19:37.021Z,30.52
2024-01-15T14:22:05.021Z,31.30
2024-01-15T14:24:32.292Z,32.99
2024-01-15T14:26:59.929Z,34.89
2024-01-15T14:29:28.255Z,35.65
2024-01-15T14:31:55.667Z,36.45
2024-01-15T14:34:25.497Z,37.66
2024-01-15T14:36:56.482Z,38.02
2024-01-15T14:42:21.500Z,41.55
2024-01-15T14:44:48.623Z,42.96
2024-01-15T14:47:15.706Z,45.99
2024-01-15T14:49:42.938Z,45.93
2024-01-15T14:52:10.174Z,47.21
2024-01-15T14:54:37.369Z,47.98
2024-01-15T14:57:04.856Z,48.42
2024-01-15T14:59:32.081Z,48.70
2024-01-15T15:01:59.281Z,49.87
2024-01-15T15:04:29.885Z,49.38
2024-01-15T15:06:58.303Z,49.78
2024-01-15T15:09:25.730Z,50.19
2024-01-15T15:11:53.358Z,49.37
2024-01-15T15:14:20.508Z,49.15
2024-01-15T15:16:50.509Z,49.63
2024-01-15T15:19:19.085Z,49.80
2024-01-15T15:21:46.478Z,50.25
2024-01-15T15:24:14.004Z,50.46
2024-01-15T15:26:41.287Z,49.75
2024-01-15T15:29:09.221Z,49.58
2024-01-15T15:31:36.528Z,48.79
2024-01-15T15:34:04.158Z,49.30
2024-01-15T15:36:32.163Z,49.52
2024-01-15T15:38:59.899Z,47.44
2024-01-15T15:41:30.096Z,46.95
2024-01-15T15:43:57.261Z,46.86
2024-01-15T15:46:24.499Z,46.92
2024-01-15T15:48:51.935Z,47.42
2024-01-15T15:51:19.260Z,47.91
2024-01-15T15:53:46.455Z,46.92
2024-01-15T15:56:13.634Z,46.20
2024-01-15T15:58:41.361Z,46.33
2024-01-15T16:01:08.598Z,46.20
2024-01-15T16:03:35.831Z,47.89
2024-01-15T16:06:03.158Z,48.50
2024-01-15T16:08:30.343Z,47.52
2024-01-15T16:10:57.516Z,46.33
2024-01-15T16:13:24.739Z,46.60
2024-01-15T16:15:51.907Z,46.38
2024-01-15T16:23:21.584Z,47.78
2024-01-15T16:23:36.406Z,48.57
2024-01-15T16:24:21.699Z,51.12
2024-01-15T16:26:55.949Z,52.09
2024-01-15T16:29:24.204Z,50.84
2024-01-15T16:31:51.314Z,51.58
2024-01-15T16:34:18.493Z,51.89
2024-01-15T16:36:45.716Z,52.73
2024-01-15T16:39:12.948Z,51.82
2024-01-15T16:41:40.583Z,52.87
2024-01-15T16:44:07.876Z,53.15
2024-01-15T16:46:35.054Z,53.04
2024-01-15T16:49:03.426Z,53.44
2024-01-15T16:51:30.795Z,53.33
2024-01-15T16:53:58.697Z,53.29
2024-01-15T16:56:26.008Z,52.31
2024-01-15T16:58:54.368Z,52.35
2024-01-15T17:01:22.288Z,52.95
2024-01-15T17:03:49.444Z,52.96
2024-01-15T17:06:18.340Z,52.73
2024-01-15T17:08:45.486Z,53.91
2024-01-15T17:11:12.720Z,53.59
2024-01-15T17:13:41.045Z,52.51
2024-01-15T17:16:08.409Z,53.30
2024-01-15T17:18:35.634Z,53.10
2024-01-15T17:21:02.826Z,52.94
2024-01-15T17:23:29.992Z,53.13
2024-01-15T17:25:57.338Z,53.36
2024-01-15T17:28:25.635Z,53.06
2024-01-15T17:30:52.909Z,52.35
2024-01-15T17:33:20.876Z,52.38
2024-01-15T17:35:57.530Z,52.43
2024-01-15T17:38:25.794Z,52.19
2024-01-15T17:40:53.082Z,51.59
2024-01-15T17:43:21.554Z,51.75
2024-01-15T17:45:49.865Z,50.79
2024-01-15T17:48:17.332Z,50.79
2024-01-15T17:50:44.912Z,51.91
2024-01-15T17:53:12.585Z,53.42
2024-01-15T17:55:39.774Z,53.74
2024-01-15T17:58:07.278Z,53.71
2024-01-15T18:00:34.806Z,54.30
2024-01-15T18:03:02.168Z,54.38
2024-01-15T18:05:29.523Z,55.64
2024-01-15T18:07:56.957Z,54.77
2024-01-15T18:10:24.164Z,55.25
2024-01-15T18:12:51.427Z,55.55
2024-01-15T18:15:18.820Z,54.66
2024-01-15T18:17:46.308Z,54.20
2024-01-15T18:20:15.046Z,53.91
2024-01-15T18:22:42.329Z,54.21
2024-01-15T18:25:10.441Z,54.21
2024-01-15T18:27:37.685Z,54.51
2024-01-15T18:30:05.187Z,54.14
2024-01-15T18:32:32.503Z,54.13
2024-01-15T18:34:59.892Z,54.33
2024-01-15T18:37:29.024Z,53.98
2024-01-15T18:39:56.259Z,54.54
2024-01-15T18:42:23.753Z,55.41
2024-01-15T18:44:51.317Z,55.18
2024-01-15T18:47:18.829Z,54.22
2024-01-15T18:49:48.535Z,55.07
2024-01-15T18:52:17.715Z,54.93
2024-01-15T18:54:44.977Z,54.35
2024-01-15T18:57:12.236Z,54.67
2024-01-15T18:59:41.412Z,54.68
2024-01-15T19:02:08.712Z,54.04
2024-01-15T19:04:36.178Z,54.48
2024-01-15T19:07:05.933Z,54.35
2024-01-15T19:09:33.285Z,53.35
2024-01-15T19:12:00.513Z,52.74
2024-01-15T19:14:27.985Z,52.81
2024-01-15T19:16:55.384Z,52.56
2024-01-15T19:19:22.593Z,53.38
2024-01-15T19:21:51.284Z,52.99
2024-01-15T19:24:19.738Z,52.69
2024-01-15T19:26:46.945Z,53.25
2024-01-15T19:29:14.372Z,53.04
2024-01-15T19:31:42.124Z,53.36
2024-01-15T19:34:09.838Z,55.28
2024-01-15T19:36:37.072Z,54.41
2024-01-15T19:39:04.368Z,54.81
2024-01-15T19:41:31.664Z,55.26
2024-01-15T19:43:58.920Z,55.15
2024-01-15T19:46:26.576Z,54.35
2024-01-15T19:48:54.838Z,53.61
2024-01-15T19:51:22.136Z,53.13
2024-01-15T19:53:49.352Z,52.72
2024-01-15T19:56:18.945Z,52.94
2024-01-15T19:58:46.294Z,52.93
2024-01-15T20:01:13.642Z,52.29
2024-01-15T20:03:42.523Z,52.84
2024-01-15T20:06:14.222Z,52.76
2024-01-15T20:08:46.117Z,52.67
2024-01-15T20:11:14.151Z,53.70
2024-01-15T20:13:43.047Z,52.68
2024-01-15T20:16:13.601Z,52.56
2024-01-15T20:18:42.566Z,53.34
2024-01-15T20:21:09.908Z,53.38
2024-01-15T20:23:46.628Z,53.60
2024-01-15T20:26:22.251Z,53.91
2024-01-15T20:28:49.657Z,53.18
2024-01-15T20:31:17.580Z,54.72
2024-01-15T20:33:44.755Z,57.93
2024-01-15T20:36:14.417Z,58.14
2024-01-15T20:38:41.761Z,56.59
2024-01-15T20:41:09.049Z,55.75
2024-01-15T20:43:36.524Z,55.42
2024-01-15T20:46:03.974Z,55.05
2024-01-15T20:48:32.581Z,54.30
2024-01-15T20:50:59.800Z,54.41
2024-01-15T20:53:27.135Z,52.71
2024-01-15T20:55:54.385Z,51.98
2024-01-15T20:58:27.514Z,52.07
2024-01-15T21:00:55.832Z,52.48
2024-01-15T21:03:23.927Z,51.42
2024-01-15T21:05:51.364Z,51.26
2024-01-15T21:08:18.843Z,52.00
2024-01-15T21:10:46.037Z,52.97
2024-01-15T21:13:13.279Z,54.36
2024-01-15T21:15:40.477Z,55.13
2024-01-15T21:18:07.855Z,54.74
2024-01-15T21:20:35.084Z,54.29
2024-01-15T21:23:03.569Z,52.81
2024-01-15T21:25:31.739Z,53.53
2024-01-15T21:27:58.903Z,54.44
2024-01-15T21:30:26.483Z,53.58
2024-01-15T21:32:53.812Z,53.88
2024-01-15T21:35:21.190Z,54.47
2024-01-15T21:37:48.384Z,55.31
2024-01-15T21:40:16.943Z,55.91
2024-01-15T21:42:44.979Z,57.25
2024-01-15T21:45:12.222Z,57.75
2024-01-15T21:47:39.622Z,57.46
2024-01-15T21:50:10.113Z,58.25
2024-01-15T21:52:37.806Z,58.81
2024-01-15T21:55:07.074Z,58.69
2024-01-15T21:57:34.476Z,56.86
2024-01-15T22:00:05.559Z,56.25
2024-01-15T22:02:41.511Z,58.50
2024-01-15T22:05:10.387Z,59.52
2024-01-15T22:07:41.448Z,58.66
2024-01-15T22:10:09.401Z,59.24
2024-01-15T22:12:36.706Z,60.02
2024-01-15T22:15:04.246Z,60.71
2024-01-15T22:17:31.457Z,60.35
2024-01-15T22:19:58.789Z,59.20
2024-01-15T22:22:25.962Z,58.09
2024-01-15T22:24:53.111Z,57.76
2024-01-15T22:27:20.292Z,58.33
2024-01-15T22:29:51.908Z,58.67
2024-01-15T22:32:19.427Z,59.29
2024-01-15T22:34:46.800Z,59.30
2024-01-15T22:37:15.142Z,58.79
2024-01-15T22:39:42.339Z,61.66
2024-01-15T22:42:10.203Z,62.00
2024-01-15T22:44:37.548Z,63.56
2024-01-15T22:47:05.017Z,65.48
2024-01-15T22:49:32.324Z,66.10
2024-01-15T22:51:59.479Z,67.34
2024-01-15T22:54:27.072Z,62.59
2024-01-15T22:56:54.225Z,61.56
2024-01-15T22:59:23.395Z,65.22
2024-01-15T23:01:50.944Z,64.44
2024-01-15T23:04:19.039Z,63.78
2024-01-15T23:06:46.430Z,64.15
2024-01-15T23:09:13.594Z,65.64
2024-01-15T23:11:40.906Z,65.28
2024-01-15T23:14:08.193Z,64.70
2024-01-15T23:16:35.414Z,66.22
2024-01-15T23:19:02.603Z,65.54
2024-01-15T23:21:29.773Z,63.67
2024-01-15T23:23:56.918Z,64.68
2024-01-15T23:26:24.100Z,64.29
2024-01-15T23:28:51.331Z,65.96
2024-01-15T23:31:18.583Z,66.96
2024-01-15T23:33:45.769Z,66.12
2024-01-15T23:36:13.108Z,65.68
2024-01-15T23:38:40.528Z,66.71
2024-01-15T23:41:10.966Z,67.03
2024-01-15T23:43:39.809Z,65.78
2024-01-15T23:46:14.247Z,65.37
2024-01-15T23:48:42.734Z,66.86
2024-01-15T23:51:10.197Z,67.08
2024-01-15T23:53:37.426Z,67.53
2024-01-15T23:56:05.308Z,67.85
2024-01-15T23:58:32.528Z,68.98
